sensor_id;sensor_type;location;lat;lon;timestamp;P1;durP1;ratioP1;P2;durP2;ratioP2
72205;SDS011;60111;48.286;7.812;2022-09-03T00:02:46;4.67;;;2.52;;
72205;SDS011;60111;48.286;7.812;2022-09-03T00:10:55;2.98;;;2.22;;
72205;SDS011;60111;48.286;7.812;2022-09-03T00:13:37;2.70;;;2.50;;
72205;SDS011;60111;48.286;7.812;2022-09-03T00:16:16;6.37;;;2.55;;
72205;SDS011;60111;48.286;7.812;2022-09-03T00:18:53;2.40;;;2.20;;
72205;SDS011;60111;48.286;7.812;2022-09-03T00:21:50;3.30;;;2.30;;
72205;SDS011;60111;48.286;7.812;2022-09-03T00:24:23;4.43;;;2.40;;
72205;SDS011;60111;48.286;7.812;2022-09-03T00:26:59;2.90;;;2.22;;
72205;SDS011;60111;48.286;7.812;2022-09-03T00:29:42;4.55;;;1.87;;
72205;SDS011;60111;48.286;7.812;2022-09-03T00:32:19;4.80;;;2.37;;
72205;SDS011;60111;48.286;7.812;2022-09-03T00:34:56;4.42;;;2.08;;
72205;SDS011;60111;48.286;7.812;2022-09-03T00:37:31;3.95;;;2.22;;
72205;SDS011;60111;48.286;7.812;2022-09-03T00:40:06;3.58;;;2.17;;
72205;SDS011;60111;48.286;7.812;2022-09-03T00:42:44;5.37;;;1.80;;
72205;SDS011;60111;48.286;7.812;2022-09-03T00:48:15;3.98;;;2.17;;
72205;SDS011;60111;48.286;7.812;2022-09-03T00:51:06;2.80;;;2.30;;
72205;SDS011;60111;48.286;7.812;2022-09-03T00:53:54;3.10;;;2.00;;
72205;SDS011;60111;48.286;7.812;2022-09-03T00:56:35;4.47;;;2.30;;
72205;SDS011;60111;48.286;7.812;2022-09-03T01:10:15;3.64;;;2.40;;
72205;SDS011;60111;48.286;7.812;2022-09-03T01:18:30;2.80;;;2.30;;
72205;SDS011;60111;48.286;7.812;2022-09-03T01:30:12;3.37;;;2.20;;
72205;SDS011;60111;48.286;7.812;2022-09-03T01:35:22;3.05;;;2.12;;
72205;SDS011;60111;48.286;7.812;2022-09-03T01:41:10;2.27;;;1.82;;
72205;SDS011;60111;48.286;7.812;2022-09-03T01:47:51;2.62;;;1.82;;
72205;SDS011;60111;48.286;7.812;2022-09-03T01:49:59;2.85;;;1.60;;
72205;SDS011;60111;48.286;7.812;2022-09-03T02:00:56;4.03;;;1.98;;
72205;SDS011;60111;48.286;7.812;2022-09-03T02:03:40;2.10;;;1.90;;
72205;SDS011;60111;48.286;7.812;2022-09-03T02:06:15;2.42;;;2.08;;
72205;SDS011;60111;48.286;7.812;2022-09-03T02:08:50;2.00;;;1.90;;
72205;SDS011;60111;48.286;7.812;2022-09-03T02:11:23;4.53;;;2.10;;
72205;SDS011;60111;48.286;7.812;2022-09-03T02:13:56;3.30;;;2.15;;
72205;SDS011;60111;48.286;7.812;2022-09-03T02:16:31;4.97;;;2.20;;
72205;SDS011;60111;48.286;7.812;2022-09-03T02:19:09;4.03;;;1.98;;
72205;SDS011;60111;48.286;7.812;2022-09-03T02:21:48;3.75;;;2.12;;
72205;SDS011;60111;48.286;7.812;2022-09-03T02:24:26;2.45;;;2.20;;
72205;SDS011;60111;48.286;7.812;2022-09-03T02:27:00;2.55;;;2.15;;
72205;SDS011;60111;48.286;7.812;2022-09-03T02:29:33;3.75;;;2.83;;
72205;SDS011;60111;48.286;7.812;2022-09-03T02:32:06;3.40;;;2.02;;
72205;SDS011;60111;48.286;7.812;2022-09-03T02:34:38;2.77;;;2.57;;
72205;SDS011;60111;48.286;7.812;2022-09-03T02:37:14;3.10;;;2.52;;
72205;SDS011;60111;48.286;7.812;2022-09-03T02:42:22;2.87;;;2.40;;
72205;SDS011;60111;48.286;7.812;2022-09-03T02:44:56;4.55;;;2.50;;
72205;SDS011;60111;48.286;7.812;2022-09-03T02:47:30;2.60;;;2.37;;
72205;SDS011;60111;48.286;7.812;2022-09-03T02:52:37;3.10;;;2.60;;
72205;SDS011;60111;48.286;7.812;2022-09-03T02:55:10;5.10;;;2.83;;
72205;SDS011;60111;48.286;7.812;2022-09-03T02:57:43;4.58;;;2.95;;
72205;SDS011;60111;48.286;7.812;2022-09-03T03:00:16;3.08;;;2.65;;
72205;SDS011;60111;48.286;7.812;2022-09-03T03:02:49;7.70;;;3.20;;
72205;SDS011;60111;48.286;7.812;2022-09-03T03:05:26;6.28;;;2.50;;
72205;SDS011;60111;48.286;7.812;2022-09-03T03:08:17;2.52;;;2.33;;
72205;SDS011;60111;48.286;7.812;2022-09-03T03:10:55;4.60;;;2.63;;
72205;SDS011;60111;48.286;7.812;2022-09-03T03:13:30;4.33;;;3.08;;
72205;SDS011;60111;48.286;7.812;2022-09-03T03:16:04;3.00;;;2.70;;
72205;SDS011;60111;48.286;7.812;2022-09-03T03:18:36;2.77;;;2.57;;
72205;SDS011;60111;48.286;7.812;2022-09-03T03:21:10;3.30;;;2.58;;
72205;SDS011;60111;48.286;7.812;2022-09-03T03:23:44;2.80;;;2.50;;
72205;SDS011;60111;48.286;7.812;2022-09-03T03:26:17;3.67;;;2.80;;
72205;SDS011;60111;48.286;7.812;2022-09-03T03:28:55;2.50;;;2.30;;
72205;SDS011;60111;48.286;7.812;2022-09-03T03:31:27;2.47;;;2.27;;
72205;SDS011;60111;48.286;7.812;2022-09-03T03:34:01;3.30;;;2.42;;
72205;SDS011;60111;48.286;7.812;2022-09-03T03:36:34;3.00;;;2.62;;
72205;SDS011;60111;48.286;7.812;2022-09-03T03:39:07;2.95;;;2.10;;
72205;SDS011;60111;48.286;7.812;2022-09-03T03:41:40;4.72;;;2.83;;
72205;SDS011;60111;48.286;7.812;2022-09-03T03:44:13;3.05;;;2.40;;
72205;SDS011;60111;48.286;7.812;2022-09-03T03:49:19;2.85;;;2.50;;
72205;SDS011;60111;48.286;7.812;2022-09-03T03:51:52;4.20;;;2.17;;
72205;SDS011;60111;48.286;7.812;2022-09-03T03:54:24;3.62;;;2.30;;
72205;SDS011;60111;48.286;7.812;2022-09-03T03:56:57;2.77;;;2.42;;
72205;SDS011;60111;48.286;7.812;2022-09-03T03:59:29;2.83;;;2.27;;
72205;SDS011;60111;48.286;7.812;2022-09-03T04:02:02;2.37;;;2.17;;
72205;SDS011;60111;48.286;7.812;2022-09-03T04:04:35;3.12;;;2.10;;
72205;SDS011;60111;48.286;7.812;2022-09-03T04:07:07;3.87;;;2.20;;
72205;SDS011;60111;48.286;7.812;2022-09-03T04:09:40;3.40;;;2.70;;
72205;SDS011;60111;48.286;7.812;2022-09-03T04:12:13;3.87;;;2.30;;
72205;SDS011;60111;48.286;7.812;2022-09-03T04:14:45;3.65;;;2.90;;
72205;SDS011;60111;48.286;7.812;2022-09-03T04:17:18;3.20;;;2.60;;
72205;SDS011;60111;48.286;7.812;2022-09-03T04:19:50;4.05;;;2.70;;
72205;SDS011;60111;48.286;7.812;2022-09-03T04:22:23;5.40;;;2.55;;
72205;SDS011;60111;48.286;7.812;2022-09-03T04:24:55;4.08;;;2.65;;
72205;SDS011;60111;48.286;7.812;2022-09-03T04:27:28;3.35;;;2.70;;
72205;SDS011;60111;48.286;7.812;2022-09-03T04:30:01;4.10;;;2.85;;
72205;SDS011;60111;48.286;7.812;2022-09-03T04:32:33;3.40;;;2.87;;
72205;SDS011;60111;48.286;7.812;2022-09-03T04:35:24;4.80;;;3.15;;
72205;SDS011;60111;48.286;7.812;2022-09-03T04:37:59;7.50;;;3.65;;
72205;SDS011;60111;48.286;7.812;2022-09-03T04:40:33;5.45;;;3.22;;
72205;SDS011;60111;48.286;7.812;2022-09-03T04:43:06;4.22;;;3.75;;
72205;SDS011;60111;48.286;7.812;2022-09-03T04:45:39;4.37;;;3.50;;
72205;SDS011;60111;48.286;7.812;2022-09-03T04:48:11;4.87;;;3.50;;
72205;SDS011;60111;48.286;7.812;2022-09-03T04:50:44;7.95;;;4.08;;
72205;SDS011;60111;48.286;7.812;2022-09-03T04:53:16;6.27;;;3.50;;
72205;SDS011;60111;48.286;7.812;2022-09-03T04:55:49;3.97;;;3.30;;
72205;SDS011;60111;48.286;7.812;2022-09-03T04:58:22;8.63;;;3.53;;
72205;SDS011;60111;48.286;7.812;2022-09-03T05:00:54;7.17;;;4.10;;
72205;SDS011;60111;48.286;7.812;2022-09-03T05:03:27;5.97;;;3.58;;
72205;SDS011;60111;48.286;7.812;2022-09-03T05:06:02;3.98;;;3.35;;
72205;SDS011;60111;48.286;7.812;2022-09-03T05:08:36;4.30;;;3.30;;
72205;SDS011;60111;48.286;7.812;2022-09-03T05:11:10;5.47;;;3.63;;
72205;SDS011;60111;48.286;7.812;2022-09-03T05:13:42;7.97;;;4.17;;
72205;SDS011;60111;48.286;7.812;2022-09-03T05:16:17;6.78;;;3.75;;
72205;SDS011;60111;48.286;7.812;2022-09-03T05:18:53;5.80;;;3.87;;
72205;SDS011;60111;48.286;7.812;2022-09-03T05:21:28;5.92;;;4.10;;
72205;SDS011;60111;48.286;7.812;2022-09-03T05:24:02;6.38;;;4.04;;
72205;SDS011;60111;48.286;7.812;2022-09-03T05:26:36;4.97;;;3.47;;
72205;SDS011;60111;48.286;7.812;2022-09-03T05:29:10;5.42;;;4.05;;
72205;SDS011;60111;48.286;7.812;2022-09-03T05:31:42;9.95;;;4.37;;
72205;SDS011;60111;48.286;7.812;2022-09-03T05:34:15;5.95;;;4.22;;
72205;SDS011;60111;48.286;7.812;2022-09-03T05:36:47;7.60;;;3.95;;
72205;SDS011;60111;48.286;7.812;2022-09-03T05:39:20;5.97;;;3.65;;
72205;SDS011;60111;48.286;7.812;2022-09-03T05:41:52;5.12;;;3.65;;
72205;SDS011;60111;48.286;7.812;2022-09-03T05:44:25;5.35;;;3.37;;
72205;SDS011;60111;48.286;7.812;2022-09-03T05:46:58;4.37;;;3.45;;
72205;SDS011;60111;48.286;7.812;2022-09-03T05:49:31;6.12;;;3.95;;
72205;SDS011;60111;48.286;7.812;2022-09-03T05:52:03;4.37;;;3.33;;
72205;SDS011;60111;48.286;7.812;2022-09-03T05:54:36;6.45;;;3.60;;
72205;SDS011;60111;48.286;7.812;2022-09-03T05:57:09;5.90;;;3.98;;
72205;SDS011;60111;48.286;7.812;2022-09-03T05:59:42;5.28;;;4.15;;
72205;SDS011;60111;48.286;7.812;2022-09-03T06:02:14;4.72;;;4.20;;
72205;SDS011;60111;48.286;7.812;2022-09-03T06:04:49;3.83;;;3.23;;
72205;SDS011;60111;48.286;7.812;2022-09-03T06:07:21;5.33;;;3.87;;
72205;SDS011;60111;48.286;7.812;2022-09-03T06:09:55;5.72;;;4.03;;
72205;SDS011;60111;48.286;7.812;2022-09-03T06:12:28;4.87;;;3.95;;
72205;SDS011;60111;48.286;7.812;2022-09-03T06:15:01;5.28;;;3.92;;
72205;SDS011;60111;48.286;7.812;2022-09-03T06:17:36;4.33;;;3.30;;
72205;SDS011;60111;48.286;7.812;2022-09-03T06:20:09;4.17;;;3.77;;
72205;SDS011;60111;48.286;7.812;2022-09-03T06:22:42;3.87;;;3.47;;
72205;SDS011;60111;48.286;7.812;2022-09-03T06:25:17;4.90;;;3.57;;
72205;SDS011;60111;48.286;7.812;2022-09-03T06:27:51;7.17;;;4.50;;
72205;SDS011;60111;48.286;7.812;2022-09-03T06:30:24;6.70;;;4.83;;
72205;SDS011;60111;48.286;7.812;2022-09-03T06:32:57;6.47;;;4.28;;
72205;SDS011;60111;48.286;7.812;2022-09-03T06:35:29;5.87;;;4.25;;
72205;SDS011;60111;48.286;7.812;2022-09-03T06:38:02;8.83;;;4.77;;
72205;SDS011;60111;48.286;7.812;2022-09-03T06:40:34;4.80;;;4.00;;
72205;SDS011;60111;48.286;7.812;2022-09-03T06:43:07;8.13;;;4.40;;
72205;SDS011;60111;48.286;7.812;2022-09-03T06:45:41;7.50;;;4.67;;
72205;SDS011;60111;48.286;7.812;2022-09-03T06:48:14;7.07;;;4.60;;
72205;SDS011;60111;48.286;7.812;2022-09-03T06:50:54;4.80;;;4.30;;
72205;SDS011;60111;48.286;7.812;2022-09-03T06:53:29;5.40;;;4.10;;
72205;SDS011;60111;48.286;7.812;2022-09-03T06:56:07;5.20;;;4.20;;
72205;SDS011;60111;48.286;7.812;2022-09-03T06:58:42;6.37;;;4.43;;
72205;SDS011;60111;48.286;7.812;2022-09-03T07:01:17;5.08;;;4.10;;
72205;SDS011;60111;48.286;7.812;2022-09-03T07:03:52;7.97;;;4.17;;
72205;SDS011;60111;48.286;7.812;2022-09-03T07:06:27;5.28;;;4.20;;
72205;SDS011;60111;48.286;7.812;2022-09-03T07:09:04;6.62;;;4.60;;
72205;SDS011;60111;48.286;7.812;2022-09-03T07:11:37;5.08;;;4.40;;
72205;SDS011;60111;48.286;7.812;2022-09-03T07:14:12;9.03;;;4.83;;
72205;SDS011;60111;48.286;7.812;2022-09-03T07:16:46;9.97;;;4.83;;
72205;SDS011;60111;48.286;7.812;2022-09-03T07:21:52;6.30;;;4.12;;
72205;SDS011;60111;48.286;7.812;2022-09-03T07:24:24;6.75;;;5.00;;
72205;SDS011;60111;48.286;7.812;2022-09-03T07:26:57;7.85;;;4.83;;
72205;SDS011;60111;48.286;7.812;2022-09-03T07:29:30;8.23;;;4.40;;
72205;SDS011;60111;48.286;7.812;2022-09-03T07:32:02;6.67;;;4.85;;
72205;SDS011;60111;48.286;7.812;2022-09-03T07:34:35;6.47;;;4.45;;
72205;SDS011;60111;48.286;7.812;2022-09-03T07:37:08;4.90;;;4.40;;
72205;SDS011;60111;48.286;7.812;2022-09-03T07:39:41;7.72;;;4.40;;
72205;SDS011;60111;48.286;7.812;2022-09-03T07:42:13;6.40;;;3.58;;
72205;SDS011;60111;48.286;7.812;2022-09-03T07:44:46;5.53;;;3.85;;
72205;SDS011;60111;48.286;7.812;2022-09-03T07:47:18;4.40;;;3.80;;
72205;SDS011;60111;48.286;7.812;2022-09-03T07:49:51;4.97;;;3.15;;
72205;SDS011;60111;48.286;7.812;2022-09-03T07:52:23;7.45;;;3.55;;
72205;SDS011;60111;48.286;7.812;2022-09-03T07:54:56;5.97;;;3.65;;
72205;SDS011;60111;48.286;7.812;2022-09-03T07:57:29;3.98;;;3.40;;
72205;SDS011;60111;48.286;7.812;2022-09-03T08:00:02;5.95;;;3.15;;
72205;SDS011;60111;48.286;7.812;2022-09-03T08:05:08;6.37;;;3.50;;
72205;SDS011;60111;48.286;7.812;2022-09-03T08:07:40;4.20;;;3.40;;
72205;SDS011;60111;48.286;7.812;2022-09-03T08:10:13;4.20;;;2.95;;
72205;SDS011;60111;48.286;7.812;2022-09-03T08:12:47;3.57;;;3.20;;
72205;SDS011;60111;48.286;7.812;2022-09-03T08:15:20;4.63;;;3.10;;
72205;SDS011;60111;48.286;7.812;2022-09-03T08:17:52;5.58;;;3.35;;
72205;SDS011;60111;48.286;7.812;2022-09-03T08:20:25;5.80;;;3.12;;
72205;SDS011;60111;48.286;7.812;2022-09-03T08:23:02;3.63;;;3.17;;
72205;SDS011;60111;48.286;7.812;2022-09-03T08:25:34;5.17;;;3.08;;
72205;SDS011;60111;48.286;7.812;2022-09-03T08:28:07;3.27;;;2.98;;
72205;SDS011;60111;48.286;7.812;2022-09-03T08:30:39;4.35;;;3.15;;
72205;SDS011;60111;48.286;7.812;2022-09-03T08:33:12;5.05;;;3.10;;
72205;SDS011;60111;48.286;7.812;2022-09-03T08:35:51;8.50;;;3.20;;
72205;SDS011;60111;48.286;7.812;2022-09-03T08:38:25;4.25;;;3.33;;
72205;SDS011;60111;48.286;7.812;2022-09-03T08:41:04;4.10;;;2.75;;
72205;SDS011;60111;48.286;7.812;2022-09-03T08:46:52;3.70;;;2.80;;
72205;SDS011;60111;48.286;7.812;2022-09-03T08:52:27;3.52;;;3.12;;
72205;SDS011;60111;48.286;7.812;2022-09-03T08:55:26;4.70;;;3.10;;
72205;SDS011;60111;48.286;7.812;2022-09-03T09:03:42;7.75;;;3.50;;
72205;SDS011;60111;48.286;7.812;2022-09-03T09:06:28;9.73;;;3.60;;
72205;SDS011;60111;48.286;7.812;2022-09-03T09:09:14;6.97;;;4.05;;
72205;SDS011;60111;48.286;7.812;2022-09-03T09:21:17;4.30;;;3.10;;
72205;SDS011;60111;48.286;7.812;2022-09-03T09:23:51;4.00;;;3.60;;
72205;SDS011;60111;48.286;7.812;2022-09-03T09:26:26;4.97;;;3.35;;
72205;SDS011;60111;48.286;7.812;2022-09-03T09:29:03;6.90;;;3.25;;
72205;SDS011;60111;48.286;7.812;2022-09-03T09:31:37;3.47;;;3.17;;
72205;SDS011;60111;48.286;7.812;2022-09-03T09:34:13;5.25;;;3.50;;
72205;SDS011;60111;48.286;7.812;2022-09-03T09:36:48;10.83;;;3.67;;
72205;SDS011;60111;48.286;7.812;2022-09-03T09:39:23;10.47;;;3.63;;
72205;SDS011;60111;48.286;7.812;2022-09-03T09:41:57;7.33;;;3.67;;
72205;SDS011;60111;48.286;7.812;2022-09-03T09:44:33;4.62;;;3.40;;
72205;SDS011;60111;48.286;7.812;2022-09-03T09:47:10;4.70;;;3.43;;
72205;SDS011;60111;48.286;7.812;2022-09-03T09:49:58;7.62;;;3.75;;
72205;SDS011;60111;48.286;7.812;2022-09-03T09:52:35;5.58;;;3.02;;
72205;SDS011;60111;48.286;7.812;2022-09-03T09:55:13;7.67;;;3.17;;
72205;SDS011;60111;48.286;7.812;2022-09-03T09:57:43;4.42;;;3.30;;
72205;SDS011;60111;48.286;7.812;2022-09-03T10:00:17;3.20;;;2.90;;
72205;SDS011;60111;48.286;7.812;2022-09-03T10:02:51;33.63;;;3.80;;
72205;SDS011;60111;48.286;7.812;2022-09-03T10:07:59;5.35;;;3.12;;
72205;SDS011;60111;48.286;7.812;2022-09-03T10:10:38;3.85;;;3.45;;
72205;SDS011;60111;48.286;7.812;2022-09-03T10:13:13;4.03;;;3.25;;
72205;SDS011;60111;48.286;7.812;2022-09-03T10:16:11;4.00;;;3.47;;
72205;SDS011;60111;48.286;7.812;2022-09-03T10:21:23;4.80;;;3.27;;
72205;SDS011;60111;48.286;7.812;2022-09-03T10:26:45;4.65;;;3.17;;
72205;SDS011;60111;48.286;7.812;2022-09-03T10:29:19;7.33;;;3.60;;
72205;SDS011;60111;48.286;7.812;2022-09-03T10:32:05;11.28;;;2.70;;
72205;SDS011;60111;48.286;7.812;2022-09-03T10:37:43;6.33;;;1.92;;
72205;SDS011;60111;48.286;7.812;2022-09-03T10:40:26;11.70;;;1.98;;
72205;SDS011;60111;48.286;7.812;2022-09-03T10:43:39;7.62;;;1.90;;
72205;SDS011;60111;48.286;7.812;2022-09-03T10:46:02;3.57;;;1.47;;
72205;SDS011;60111;48.286;7.812;2022-09-03T10:51:39;1.87;;;1.15;;
72205;SDS011;60111;48.286;7.812;2022-09-03T10:57:16;4.10;;;1.10;;
72205;SDS011;60111;48.286;7.812;2022-09-03T11:00:04;6.92;;;1.00;;
72205;SDS011;60111;48.286;7.812;2022-09-03T11:05:33;1.00;;;0.80;;
72205;SDS011;60111;48.286;7.812;2022-09-03T11:10:52;0.80;;;0.80;;
72205;SDS011;60111;48.286;7.812;2022-09-03T11:13:28;0.88;;;0.88;;
72205;SDS011;60111;48.286;7.812;2022-09-03T11:16:05;0.90;;;0.90;;
72205;SDS011;60111;48.286;7.812;2022-09-03T11:18:49;0.78;;;0.78;;
72205;SDS011;60111;48.286;7.812;2022-09-03T11:21:23;0.70;;;0.70;;
72205;SDS011;60111;48.286;7.812;2022-09-03T11:24:03;3.90;;;0.70;;
72205;SDS011;60111;48.286;7.812;2022-09-03T11:26:35;1.67;;;0.70;;
72205;SDS011;60111;48.286;7.812;2022-09-03T11:32:04;0.80;;;0.80;;
72205;SDS011;60111;48.286;7.812;2022-09-03T11:34:45;3.92;;;1.02;;
72205;SDS011;60111;48.286;7.812;2022-09-03T11:37:27;1.37;;;0.80;;
72205;SDS011;60111;48.286;7.812;2022-09-03T11:42:38;0.98;;;0.80;;
72205;SDS011;60111;48.286;7.812;2022-09-03T11:45:20;1.15;;;0.85;;
72205;SDS011;60111;48.286;7.812;2022-09-03T11:47:54;2.98;;;0.90;;
72205;SDS011;60111;48.286;7.812;2022-09-03T11:50:27;1.40;;;0.60;;
72205;SDS011;60111;48.286;7.812;2022-09-03T11:55:57;0.50;;;0.50;;
72205;SDS011;60111;48.286;7.812;2022-09-03T12:01:13;1.37;;;0.68;;
72205;SDS011;60111;48.286;7.812;2022-09-03T12:03:55;0.70;;;0.60;;
72205;SDS011;60111;48.286;7.812;2022-09-03T12:09:55;0.57;;;0.50;;
72205;SDS011;60111;48.286;7.812;2022-09-03T12:12:39;1.05;;;0.60;;
72205;SDS011;60111;48.286;7.812;2022-09-03T12:15:36;0.57;;;0.50;;
72205;SDS011;60111;48.286;7.812;2022-09-03T12:18:12;8.08;;;0.82;;
72205;SDS011;60111;48.286;7.812;2022-09-03T12:23:43;6.70;;;0.80;;
72205;SDS011;60111;48.286;7.812;2022-09-03T12:26:20;20.68;;;1.87;;
72205;SDS011;60111;48.286;7.812;2022-09-03T12:28:55;1.25;;;0.70;;
72205;SDS011;60111;48.286;7.812;2022-09-03T12:31:30;3.87;;;0.70;;
72205;SDS011;60111;48.286;7.812;2022-09-03T12:34:09;2.20;;;0.85;;
72205;SDS011;60111;48.286;7.812;2022-09-03T12:36:46;1.35;;;0.90;;
72205;SDS011;60111;48.286;7.812;2022-09-03T12:39:22;1.47;;;0.90;;
72205;SDS011;60111;48.286;7.812;2022-09-03T12:44:40;1.00;;;0.82;;
72205;SDS011;60111;48.286;7.812;2022-09-03T12:47:13;0.68;;;0.68;;
72205;SDS011;60111;48.286;7.812;2022-09-03T12:49:49;0.93;;;0.60;;
72205;SDS011;60111;48.286;7.812;2022-09-03T12:55:24;1.92;;;0.80;;
72205;SDS011;60111;48.286;7.812;2022-09-03T13:00:36;0.50;;;0.50;;
72205;SDS011;60111;48.286;7.812;2022-09-03T13:03:14;2.37;;;0.50;;
72205;SDS011;60111;48.286;7.812;2022-09-03T13:05:53;0.53;;;0.50;;
72205;SDS011;60111;48.286;7.812;2022-09-03T13:08:25;0.53;;;0.50;;
72205;SDS011;60111;48.286;7.812;2022-09-03T13:11:00;2.45;;;0.70;;
72205;SDS011;60111;48.286;7.812;2022-09-03T13:13:35;0.57;;;0.50;;
72205;SDS011;60111;48.286;7.812;2022-09-03T13:16:13;0.77;;;0.63;;
72205;SDS011;60111;48.286;7.812;2022-09-03T13:29:42;0.93;;;0.72;;
72205;SDS011;60111;48.286;7.812;2022-09-03T13:35:05;1.17;;;0.60;;
72205;SDS011;60111;48.286;7.812;2022-09-03T13:41:24;0.73;;;0.70;;
72205;SDS011;60111;48.286;7.812;2022-09-03T13:46:24;1.47;;;0.60;;
72205;SDS011;60111;48.286;7.812;2022-09-03T13:49:02;1.00;;;0.62;;
72205;SDS011;60111;48.286;7.812;2022-09-03T13:52:01;0.57;;;0.57;;
72205;SDS011;60111;48.286;7.812;2022-09-03T13:54:43;0.50;;;0.50;;
72205;SDS011;60111;48.286;7.812;2022-09-03T13:59:59;1.07;;;0.60;;
72205;SDS011;60111;48.286;7.812;2022-09-03T14:02:57;0.40;;;0.40;;
72205;SDS011;60111;48.286;7.812;2022-09-03T14:08:19;0.62;;;0.62;;
72205;SDS011;60111;48.286;7.812;2022-09-03T14:10:56;0.47;;;0.47;;
72205;SDS011;60111;48.286;7.812;2022-09-03T14:16:17;1.40;;;0.55;;
72205;SDS011;60111;48.286;7.812;2022-09-03T14:21:53;2.10;;;0.70;;
72205;SDS011;60111;48.286;7.812;2022-09-03T14:24:30;1.40;;;0.90;;
72205;SDS011;60111;48.286;7.812;2022-09-03T14:27:03;0.70;;;0.70;;
72205;SDS011;60111;48.286;7.812;2022-09-03T14:29:37;1.10;;;0.90;;
72205;SDS011;60111;48.286;7.812;2022-09-03T14:44:14;0.80;;;0.80;;
72205;SDS011;60111;48.286;7.812;2022-09-03T14:47:15;1.42;;;1.07;;
72205;SDS011;60111;48.286;7.812;2022-09-03T14:50:16;1.10;;;1.00;;
72205;SDS011;60111;48.286;7.812;2022-09-03T14:53:20;3.42;;;1.20;;
72205;SDS011;60111;48.286;7.812;2022-09-03T14:56:08;3.15;;;1.20;;
72205;SDS011;60111;48.286;7.812;2022-09-03T15:01:45;2.22;;;1.50;;
72205;SDS011;60111;48.286;7.812;2022-09-03T15:07:20;2.65;;;1.70;;
72205;SDS011;60111;48.286;7.812;2022-09-03T15:13:07;1.67;;;1.40;;
72205;SDS011;60111;48.286;7.812;2022-09-03T15:24:38;0.90;;;0.90;;
72205;SDS011;60111;48.286;7.812;2022-09-03T15:30:31;1.40;;;1.20;;
72205;SDS011;60111;48.286;7.812;2022-09-03T15:41:23;4.65;;;1.60;;
72205;SDS011;60111;48.286;7.812;2022-09-03T15:43:59;2.08;;;1.40;;
72205;SDS011;60111;48.286;7.812;2022-09-03T15:55:01;2.05;;;1.40;;
72205;SDS011;60111;48.286;7.812;2022-09-03T16:00:20;1.63;;;1.17;;
72205;SDS011;60111;48.286;7.812;2022-09-03T16:02:57;4.20;;;1.30;;
72205;SDS011;60111;48.286;7.812;2022-09-03T16:05:43;3.42;;;1.17;;
72205;SDS011;60111;48.286;7.812;2022-09-03T16:08:28;1.20;;;1.10;;
72205;SDS011;60111;48.286;7.812;2022-09-03T16:11:10;3.98;;;1.47;;
72205;SDS011;60111;48.286;7.812;2022-09-03T16:14:01;1.37;;;1.17;;
72205;SDS011;60111;48.286;7.812;2022-09-03T16:22:13;2.10;;;1.50;;
72205;SDS011;60111;48.286;7.812;2022-09-03T16:28:12;1.60;;;1.35;;
72205;SDS011;60111;48.286;7.812;2022-09-03T16:30:13;2.62;;;1.40;;
72205;SDS011;60111;48.286;7.812;2022-09-03T16:32:57;1.67;;;1.40;;
72205;SDS011;60111;48.286;7.812;2022-09-03T16:38:50;1.65;;;1.20;;
72205;SDS011;60111;48.286;7.812;2022-09-03T16:44:42;1.45;;;1.00;;
72205;SDS011;60111;48.286;7.812;2022-09-03T16:47:32;2.70;;;1.40;;
72205;SDS011;60111;48.286;7.812;2022-09-03T16:58:51;1.67;;;1.20;;
72205;SDS011;60111;48.286;7.812;2022-09-03T17:04:43;1.60;;;1.30;;
72205;SDS011;60111;48.286;7.812;2022-09-03T17:07:27;1.20;;;1.10;;
72205;SDS011;60111;48.286;7.812;2022-09-03T17:16:09;1.60;;;1.50;;
72205;SDS011;60111;48.286;7.812;2022-09-03T17:19:48;3.12;;;1.30;;
72205;SDS011;60111;48.286;7.812;2022-09-03T17:22:04;2.08;;;1.80;;
72205;SDS011;60111;48.286;7.812;2022-09-03T17:41:44;2.47;;;1.70;;
72205;SDS011;60111;48.286;7.812;2022-09-03T17:44:46;2.70;;;1.60;;
72205;SDS011;60111;48.286;7.812;2022-09-03T17:50:30;1.85;;;1.57;;
72205;SDS011;60111;48.286;7.812;2022-09-03T17:53:16;2.15;;;1.55;;
72205;SDS011;60111;48.286;7.812;2022-09-03T17:55:58;2.83;;;1.60;;
72205;SDS011;60111;48.286;7.812;2022-09-03T17:58:34;3.35;;;1.98;;
72205;SDS011;60111;48.286;7.812;2022-09-03T18:01:20;1.87;;;1.67;;
72205;SDS011;60111;48.286;7.812;2022-09-03T18:06:49;3.03;;;1.80;;
72205;SDS011;60111;48.286;7.812;2022-09-03T18:09:30;1.67;;;1.45;;
72205;SDS011;60111;48.286;7.812;2022-09-03T18:14:53;4.75;;;1.87;;
72205;SDS011;60111;48.286;7.812;2022-09-03T18:17:30;3.87;;;2.33;;
72205;SDS011;60111;48.286;7.812;2022-09-03T18:20:08;2.85;;;1.90;;
72205;SDS011;60111;48.286;7.812;2022-09-03T18:23:25;6.50;;;3.13;;
72205;SDS011;60111;48.286;7.812;2022-09-03T18:26:22;3.05;;;2.10;;
72205;SDS011;60111;48.286;7.812;2022-09-03T18:32:25;2.60;;;1.70;;
72205;SDS011;60111;48.286;7.812;2022-09-03T18:35:17;3.98;;;1.77;;
72205;SDS011;60111;48.286;7.812;2022-09-03T18:38:08;3.80;;;1.55;;
72205;SDS011;60111;48.286;7.812;2022-09-03T18:41:46;1.85;;;1.70;;
72205;SDS011;60111;48.286;7.812;2022-09-03T18:44:02;2.30;;;1.93;;
72205;SDS011;60111;48.286;7.812;2022-09-03T18:47:22;2.10;;;1.90;;
72205;SDS011;60111;48.286;7.812;2022-09-03T18:50:20;3.10;;;1.80;;
72205;SDS011;60111;48.286;7.812;2022-09-03T18:53:31;3.95;;;3.00;;
72205;SDS011;60111;48.286;7.812;2022-09-03T18:56:46;4.08;;;3.17;;
72205;SDS011;60111;48.286;7.812;2022-09-03T19:03:02;6.70;;;3.85;;
72205;SDS011;60111;48.286;7.812;2022-09-03T19:09:00;5.70;;;2.40;;
72205;SDS011;60111;48.286;7.812;2022-09-03T19:18:09;4.60;;;2.58;;
72205;SDS011;60111;48.286;7.812;2022-09-03T19:24:05;2.83;;;2.50;;
72205;SDS011;60111;48.286;7.812;2022-09-03T19:27:02;3.72;;;2.12;;
72205;SDS011;60111;48.286;7.812;2022-09-03T19:33:12;2.62;;;2.42;;
72205;SDS011;60111;48.286;7.812;2022-09-03T19:36:07;7.12;;;2.70;;
72205;SDS011;60111;48.286;7.812;2022-09-03T19:48:47;3.33;;;2.47;;
72205;SDS011;60111;48.286;7.812;2022-09-03T19:52:00;4.47;;;2.52;;
72205;SDS011;60111;48.286;7.812;2022-09-03T19:54:54;2.50;;;2.30;;
72205;SDS011;60111;48.286;7.812;2022-09-03T19:57:48;5.03;;;2.70;;
72205;SDS011;60111;48.286;7.812;2022-09-03T20:00:40;5.60;;;2.40;;
72205;SDS011;60111;48.286;7.812;2022-09-03T20:03:32;4.55;;;2.70;;
72205;SDS011;60111;48.286;7.812;2022-09-03T20:06:24;4.73;;;2.40;;
72205;SDS011;60111;48.286;7.812;2022-09-03T20:09:16;5.80;;;2.50;;
72205;SDS011;60111;48.286;7.812;2022-09-03T20:12:09;6.00;;;2.27;;
72205;SDS011;60111;48.286;7.812;2022-09-03T20:14:44;2.67;;;2.02;;
72205;SDS011;60111;48.286;7.812;2022-09-03T20:17:22;4.15;;;2.30;;
72205;SDS011;60111;48.286;7.812;2022-09-03T20:23:00;3.08;;;2.10;;
72205;SDS011;60111;48.286;7.812;2022-09-03T20:37:40;2.58;;;2.35;;
72205;SDS011;60111;48.286;7.812;2022-09-03T20:40:25;8.33;;;2.77;;
72205;SDS011;60111;48.286;7.812;2022-09-03T20:43:08;5.92;;;2.27;;
72205;SDS011;60111;48.286;7.812;2022-09-03T20:51:32;2.95;;;2.20;;
72205;SDS011;60111;48.286;7.812;2022-09-03T20:54:25;4.73;;;2.37;;
72205;SDS011;60111;48.286;7.812;2022-09-03T21:00:11;3.92;;;2.35;;
72205;SDS011;60111;48.286;7.812;2022-09-03T21:03:05;2.55;;;2.35;;
72205;SDS011;60111;48.286;7.812;2022-09-03T21:05:42;5.00;;;2.20;;
72205;SDS011;60111;48.286;7.812;2022-09-03T21:16:40;4.22;;;2.30;;
72205;SDS011;60111;48.286;7.812;2022-09-03T21:25:19;4.10;;;2.37;;
72205;SDS011;60111;48.286;7.812;2022-09-03T21:27:54;4.00;;;2.47;;
72205;SDS011;60111;48.286;7.812;2022-09-03T21:30:29;3.05;;;2.12;;
72205;SDS011;60111;48.286;7.812;2022-09-03T21:33:05;2.60;;;2.22;;
72205;SDS011;60111;48.286;7.812;2022-09-03T21:35:53;5.97;;;2.80;;
72205;SDS011;60111;48.286;7.812;2022-09-03T21:38:46;3.12;;;2.50;;
72205;SDS011;60111;48.286;7.812;2022-09-03T21:41:22;3.30;;;2.60;;
72205;SDS011;60111;48.286;7.812;2022-09-03T21:44:00;4.05;;;2.65;;